Time;durP1;ratioP1;P1;durP2;ratioP2;P2;SDS_P1;SDS_P2;PMS_P1;PMS_P2;Temp;Humidity;BMP_temperature;BMP_pressure;BME280_temperature;BME280_humidity;BME280_pressure;Samples;Min_cycle;Max_cycle;Signal;HPM_P1;HPM_P2
2021/10/07 00:01:36;;;;;;;8.35;5.97;;;;;;;2.72;86.37;93873.63;1843286;77;21317;-84
2021/10/07 00:04:05;;;;;;;11.48;6.20;;;;;;;2.69;86.05;93868.91;1848713;77;21705;-85
2021/10/07 00:06:33;;;;;;;8.25;5.33;;;;;;;2.67;85.92;93873.81;1775920;78;20998;-85
2021/10/07 00:09:00;;;;;;;14.98;5.25;;;;;;;2.68;86.28;93874.06;1835692;75;21569;-85
2021/10/07 00:11:26;;;;;;;7.40;4.87;;;;;;;2.72;86.38;93872.28;1842669;77;21129;-85
2021/10/07 00:13:53;;;;;;;8.70;4.97;;;;;;;2.67;86.19;93880.00;1834165;77;21550;-84
2021/10/07 00:16:24;;;;;;;8.03;5.42;;;;;;;2.67;86.19;93880.00;1822214;77;21701;-84
2021/10/07 00:18:52;;;;;;;7.20;5.65;;;;;;;2.56;86.79;93876.73;1831156;76;21030;-84
2021/10/07 00:21:19;;;;;;;8.58;5.40;;;;;;;2.52;86.94;93883.86;1831635;76;21030;-85
2021/10/07 00:23:58;;;;;;;7.92;5.00;;;;;;;2.43;87.27;93877.25;1845199;76;21058;-84
2021/10/07 00:26:15;;;;;;;7.15;4.95;;;;;;;2.32;88.11;93874.77;1809591;76;21088;-84
2021/10/07 00:28:42;;;;;;;6.70;5.40;;;;;;;2.22;88.61;93878.67;1859820;75;21081;-84
2021/10/07 00:31:16;;;;;;;6.97;5.83;;;;;;;2.24;89.18;93872.40;1830090;76;21025;-84
2021/10/07 00:33:55;;;;;;;8.85;5.78;;;;;;;2.33;89.49;93873.11;1822702;77;21037;-84
2021/10/07 00:36:35;;;;;;;7.40;4.90;;;;;;;2.40;88.77;93873.89;1832149;76;21364;-84
2021/10/07 00:41:27;;;;;;;7.93;6.03;;;;;;;2.28;88.20;93875.20;1751838;80;22131;-84
2021/10/07 00:43:53;;;;;;;7.33;5.87;;;;;;;2.16;88.51;93875.39;1775175;80;21065;-85
2021/10/07 00:46:20;;;;;;;7.70;5.70;;;;;;;2.15;88.85;93878.42;1779175;80;21035;-84
2021/10/07 00:48:46;;;;;;;7.37;5.37;;;;;;;2.17;88.88;93876.17;1826882;76;20996;-83
2021/10/07 00:51:14;;;;;;;7.85;5.50;;;;;;;2.22;88.49;93875.17;1848460;76;21553;-84
2021/10/07 00:53:40;;;;;;;6.67;5.05;;;;;;;2.21;88.50;93871.71;1823404;77;21753;-84
2021/10/07 00:56:07;;;;;;;8.28;5.83;;;;;;;2.25;88.34;93875.30;1803299;79;21018;-86
2021/10/07 00:58:37;;;;;;;5.62;4.30;;;;;;;2.23;88.17;93870.84;1784767;79;21042;-85
2021/10/07 01:01:03;;;;;;;5.72;5.00;;;;;;;2.19;88.70;93868.59;1775226;79;21017;-84
2021/10/07 01:03:33;;;;;;;8.20;5.90;;;;;;;2.12;88.95;93868.34;1791560;79;21030;-84
2021/10/07 01:06:00;;;;;;;8.20;5.83;;;;;;;2.05;89.29;93870.77;1788129;78;21158;-86
2021/10/07 01:08:27;;;;;;;10.32;6.00;;;;;;;2.01;89.67;93865.84;1808206;77;21435;-84
2021/10/07 01:10:55;;;;;;;7.37;4.90;;;;;;;1.98;90.05;93865.16;1823404;78;21002;-85
2021/10/07 01:13:22;;;;;;;7.53;5.17;;;;;;;1.99;90.22;93872.86;1830431;78;21003;-84
2021/10/07 01:15:49;;;;;;;7.33;6.20;;;;;;;1.91;90.20;93865.68;1836405;77;21311;-85
2021/10/07 01:18:15;;;;;;;8.70;4.95;;;;;;;1.87;90.42;93867.45;1840236;76;21697;-84
2021/10/07 01:20:42;;;;;;;9.03;5.00;;;;;;;1.87;90.68;93862.09;1824352;77;21010;-84
2021/10/07 01:23:08;;;;;;;8.30;5.72;;;;;;;1.90;90.77;93861.44;1847197;76;20987;-87
2021/10/07 01:25:35;;;;;;;8.83;4.65;;;;;;;1.91;90.14;93863.00;1809231;77;21101;-85
2021/10/07 01:28:02;;;;;;;7.45;4.65;;;;;;;1.90;89.54;93865.46;1804561;77;21084;-85
2021/10/07 01:30:28;;;;;;;13.78;6.00;;;;;;;1.87;88.94;93865.55;1773663;79;21742;-85
2021/10/07 01:32:56;;;;;;;8.10;5.60;;;;;;;1.74;88.82;93859.92;1785687;79;21101;-85
2021/10/07 01:35:23;;;;;;;6.28;5.00;;;;;;;1.63;88.90;93854.73;1764848;80;21002;-84
2021/10/07 01:37:50;;;;;;;8.93;5.55;;;;;;;1.56;89.69;93859.27;1832415;77;21053;-84
2021/10/07 01:40:17;;;;;;;6.95;4.55;;;;;;;1.54;90.30;93864.72;1825690;77;21033;-85
2021/10/07 01:42:43;;;;;;;9.13;4.80;;;;;;;1.58;90.34;93861.08;1830294;77;21067;-84
2021/10/07 01:45:11;;;;;;;8.13;5.25;;;;;;;1.63;90.04;93864.11;1821058;77;21038;-86
2021/10/07 01:47:37;;;;;;;8.03;5.25;;;;;;;1.60;89.87;93862.08;1781496;78;21581;-86
2021/10/07 01:50:06;;;;;;;9.63;6.85;;;;;;;1.56;90.18;93862.52;1839588;77;21596;-84
2021/10/07 01:52:33;;;;;;;10.45;7.45;;;;;;;1.55;90.70;93867.09;1836621;77;21427;-85
2021/10/07 01:54:59;;;;;;;9.65;6.50;;;;;;;1.60;90.98;93868.23;1849196;76;21019;-84
2021/10/07 01:57:26;;;;;;;7.92;6.22;;;;;;;1.67;90.69;93866.37;1830371;77;21031;-84
2021/10/07 01:59:52;;;;;;;9.95;7.20;;;;;;;1.69;90.20;93862.25;1790973;79;21038;-84
2021/10/07 02:02:19;;;;;;;12.20;6.72;;;;;;;1.71;90.13;93860.58;1828753;76;21505;-85
2021/10/07 02:04:46;;;;;;;9.40;5.80;;;;;;;1.77;90.32;93868.66;1820729;77;21104;-84
2021/10/07 02:07:12;;;;;;;14.28;5.58;;;;;;;1.81;89.90;93870.91;1839080;77;21794;-85
2021/10/07 02:09:39;;;;;;;6.45;4.95;;;;;;;1.84;89.50;93874.28;1831141;76;20974;-84
2021/10/07 02:12:07;;;;;;;7.75;5.45;;;;;;;1.84;89.05;93875.62;1828727;77;21189;-85
2021/10/07 02:14:34;;;;;;;10.80;5.65;;;;;;;1.84;88.88;93876.16;1843857;77;21518;-87
2021/10/07 02:17:02;;;;;;;11.93;6.58;;;;;;;1.83;88.68;93892.80;1823321;77;21093;-86
2021/10/07 02:19:29;;;;;;;16.87;6.58;;;;;;;1.75;88.88;93893.66;1842484;76;21104;-84
2021/10/07 02:21:55;;;;;;;6.78;5.55;;;;;;;1.71;89.06;93895.42;1842659;76;21331;-85
2021/10/07 02:24:22;;;;;;;6.25;4.62;;;;;;;1.67;88.83;93895.30;1818526;78;21083;-85
2021/10/07 02:29:16;;;;;;;7.42;6.00;;;;;;;1.55;89.26;93896.58;1855228;76;21062;-85
2021/10/07 02:31:42;;;;;;;10.63;5.30;;;;;;;1.48;89.60;93892.84;1796614;76;21640;-85
2021/10/07 02:34:09;;;;;;;7.20;5.17;;;;;;;1.48;90.08;93886.14;1748976;80;21055;-85
2021/10/07 02:36:37;;;;;;;8.75;4.95;;;;;;;1.48;90.21;93884.80;1791057;78;21068;-85
2021/10/07 02:39:04;;;;;;;7.08;5.85;;;;;;;1.47;90.30;93885.36;1785937;78;21095;-85
2021/10/07 02:41:31;;;;;;;7.17;5.85;;;;;;;1.43;90.46;93883.11;1787733;78;21667;-85
2021/10/07 02:43:58;;;;;;;7.95;5.17;;;;;;;1.43;90.59;93883.89;1794458;78;21104;-84
2021/10/07 02:46:26;;;;;;;6.42;5.35;;;;;;;1.46;90.32;93882.44;1830645;76;21021;-84
2021/10/07 02:48:52;;;;;;;10.13;6.60;;;;;;;1.49;90.03;93885.81;1828506;76;21007;-84
2021/10/07 02:51:18;;;;;;;8.45;5.78;;;;;;;1.49;89.80;93884.47;1773396;78;21173;-86
2021/10/07 02:53:45;;;;;;;6.85;5.90;;;;;;;1.49;89.79;93885.02;1751309;80;21065;-85
2021/10/07 02:56:11;;;;;;;9.03;5.22;;;;;;;1.51;89.77;93886.28;1783855;77;21072;-84
2021/10/07 02:58:38;;;;;;;8.45;5.90;;;;;;;1.53;89.58;93890.74;1802266;79;21084;-85
2021/10/07 03:01:04;;;;;;;8.25;5.67;;;;;;;1.57;89.25;93890.88;1801535;78;20988;-85
2021/10/07 03:03:32;;;;;;;9.73;5.53;;;;;;;1.56;88.82;93892.00;1811664;77;21029;-86
2021/10/07 03:05:59;;;;;;;10.25;5.65;;;;;;;1.49;88.78;93891.17;1800623;78;21274;-86
2021/10/07 03:08:28;;;;;;;8.50;5.42;;;;;;;1.46;89.01;93905.21;1865221;75;21123;-85
2021/10/07 03:10:56;;;;;;;10.78;5.20;;;;;;;1.46;88.97;93905.21;1805443;76;21062;-85
2021/10/07 03:13:22;;;;;;;5.60;4.85;;;;;;;1.45;88.80;93906.33;1797256;77;20976;-85
2021/10/07 03:15:49;;;;;;;5.10;4.35;;;;;;;1.41;88.79;93912.11;1762875;81;21056;-84
2021/10/07 03:18:15;;;;;;;7.78;5.53;;;;;;;1.40;88.61;93907.31;1779272;77;20957;-85
2021/10/07 03:20:42;;;;;;;6.37;5.22;;;;;;;1.34;88.48;93911.84;1819596;78;21768;-84
2021/10/07 03:23:09;;;;;;;6.58;4.72;;;;;;;1.31;88.81;93917.84;1763936;78;21052;-85
2021/10/07 03:25:35;;;;;;;8.38;5.53;;;;;;;1.29;88.64;93912.82;1762424;80;21080;-84
2021/10/07 03:28:01;;;;;;;5.33;4.50;;;;;;;1.21;88.61;93919.80;1755588;81;20982;-85
2021/10/07 03:30:27;;;;;;;12.18;5.60;;;;;;;1.15;88.92;93921.08;1753188;80;21046;-85
2021/10/07 03:32:54;;;;;;;6.87;5.15;;;;;;;1.12;89.15;93925.73;1749526;80;21759;-84
2021/10/07 03:35:20;;;;;;;7.37;4.72;;;;;;;1.07;89.25;93925.93;1747270;80;21065;-85
2021/10/07 03:37:47;;;;;;;7.08;5.80;;;;;;;1.03;89.48;93929.02;1806624;77;21108;-86
2021/10/07 03:40:13;;;;;;;7.75;5.03;;;;;;;0.96;89.83;93928.18;1832550;77;21004;-84
2021/10/07 03:42:40;;;;;;;5.65;4.67;;;;;;;0.93;90.45;93935.52;1834927;77;21066;-85
2021/10/07 03:45:07;;;;;;;7.25;4.83;;;;;;;0.98;90.58;93933.23;1838338;77;21522;-85
2021/10/07 03:47:36;;;;;;;7.00;4.80;;;;;;;1.02;90.31;93938.73;1839381;77;21033;-85
2021/10/07 03:50:04;;;;;;;7.78;5.25;;;;;;;0.98;90.04;93938.59;1835348;77;21564;-86
2021/10/07 03:52:30;;;;;;;7.62;4.85;;;;;;;0.95;90.31;93931.19;1836575;77;20976;-84
2021/10/07 03:54:56;;;;;;;7.70;4.80;;;;;;;0.95;90.47;93933.87;1835113;77;21513;-85
2021/10/07 03:57:23;;;;;;;6.03;4.65;;;;;;;0.95;90.68;93925.28;1833200;77;21709;-86
2021/10/07 03:59:50;;;;;;;7.30;5.03;;;;;;;0.99;90.80;93924.64;1781116;79;21073;-85
2021/10/07 04:02:17;;;;;;;19.50;6.00;;;;;;;1.03;90.77;93930.36;1826487;77;21091;-86
2021/10/07 04:04:43;;;;;;;11.95;5.15;;;;;;;1.05;90.64;93932.15;1816011;75;20993;-86
2021/10/07 04:07:10;;;;;;;7.97;5.35;;;;;;;1.06;90.60;93927.61;1804495;76;21121;-85
2021/10/07 04:09:36;;;;;;;6.65;5.05;;;;;;;1.01;90.05;93929.11;1782354;78;21078;-85
2021/10/07 04:12:03;;;;;;;7.95;5.42;;;;;;;0.92;90.08;93929.16;1782639;78;21028;-85
2021/10/07 04:14:30;;;;;;;7.30;5.12;;;;;;;0.83;89.28;93932.40;1811177;77;21050;-85
2021/10/07 04:16:56;;;;;;;7.67;5.30;;;;;;;0.77;89.44;93931.80;1840651;77;21538;-85
2021/10/07 04:19:22;;;;;;;8.43;5.45;;;;;;;0.76;89.79;93930.24;1833938;77;21006;-85
2021/10/07 04:21:49;;;;;;;10.58;5.62;;;;;;;0.72;89.82;93931.99;1823624;77;21127;-84
2021/10/07 04:24:15;;;;;;;10.55;5.90;;;;;;;0.71;90.28;93932.55;1822915;77;21081;-85
2021/10/07 04:26:42;;;;;;;12.05;6.78;;;;;;;0.76;90.66;93936.94;1817981;77;21054;-86
2021/10/07 04:29:08;;;;;;;11.93;6.55;;;;;;;0.79;90.73;93938.98;1806686;77;21021;-86
2021/10/07 04:31:34;;;;;;;9.80;5.35;;;;;;;0.83;90.37;93943.11;1774756;79;21039;-86
2021/10/07 04:34:01;;;;;;;7.25;6.03;;;;;;;0.82;89.75;93942.33;1770605;78;21125;-85
2021/10/07 04:36:27;;;;;;;7.70;5.80;;;;;;;0.80;89.41;93949.13;1802272;77;21579;-86
2021/10/07 04:38:53;;;;;;;8.60;5.92;;;;;;;0.68;89.36;93945.23;1811496;78;21085;-85
2021/10/07 04:41:20;;;;;;;8.00;5.28;;;;;;;0.62;90.00;93951.06;1806168;77;21113;-85
2021/10/07 04:43:46;;;;;;;8.75;5.33;;;;;;;0.58;89.63;93947.45;1773566;79;21093;-84
2021/10/07 04:46:13;;;;;;;7.83;4.95;;;;;;;0.50;89.86;93953.06;1793873;77;21113;-84
2021/10/07 04:48:39;;;;;;;6.12;4.22;;;;;;;0.45;90.39;93950.53;1769387;80;21069;-85
2021/10/07 04:51:06;;;;;;;9.30;5.55;;;;;;;0.41;90.88;93949.05;1773412;80;21076;-86
2021/10/07 04:53:32;;;;;;;6.75;5.08;;;;;;;0.39;91.42;93952.61;1772935;80;21113;-86
2021/10/07 04:55:58;;;;;;;8.03;5.37;;;;;;;0.40;91.57;93946.70;1781473;80;21104;-85
2021/10/07 04:58:25;;;;;;;7.70;5.08;;;;;;;0.34;91.80;93954.13;1764228;78;21132;-85
2021/10/07 05:00:52;;;;;;;11.38;5.78;;;;;;;0.34;92.40;93947.44;1774754;80;21682;-87
2021/10/07 05:03:19;;;;;;;13.20;5.37;;;;;;;0.38;92.27;93949.70;1779800;80;21901;-85
2021/10/07 05:05:45;;;;;;;16.73;5.87;;;;;;;0.36;92.03;93952.45;1753983;80;21607;-85
2021/10/07 05:08:12;;;;;;;9.63;5.58;;;;;;;0.35;92.46;93954.91;1771329;80;21115;-85
2021/10/07 05:10:39;;;;;;;10.35;5.85;;;;;;;0.39;92.66;93952.61;1801606;77;21099;-85
2021/10/07 05:13:06;;;;;;;9.03;5.15;;;;;;;0.48;92.50;93953.92;1830840;77;21163;-86
2021/10/07 05:15:33;;;;;;;6.92;5.08;;;;;;;0.56;92.55;93963.81;1796294;79;21093;-87
2021/10/07 05:18:00;;;;;;;7.03;5.17;;;;;;;0.89;94.11;93956.56;1794592;78;21140;-86
2021/10/07 05:20:26;;;;;;;20.60;6.40;;;;;;;1.48;94.54;93959.29;1804039;77;21019;-86
2021/10/07 05:22:53;;;;;;;12.98;7.55;;;;;;;2.14;94.73;93963.49;1839136;77;21097;-85
2021/10/07 05:25:19;;;;;;;12.73;7.12;;;;;;;2.76;91.47;93962.36;1831670;77;21544;-86
2021/10/07 05:27:45;;;;;;;11.48;8.53;;;;;;;3.55;86.21;93963.00;1838951;77;21545;-87
2021/10/07 05:30:12;;;;;;;11.53;5.90;;;;;;;3.55;86.21;93963.00;1841522;77;21072;-87
2021/10/07 05:32:40;;;;;;;11.95;5.50;;;;;;;4.11;83.34;93963.91;1836513;77;21002;-85
2021/10/07 05:35:07;;;;;;;5.70;4.92;;;;;;;4.58;82.22;93965.20;1818495;77;21147;-87
2021/10/07 05:37:34;;;;;;;23.40;4.80;;;;;;;4.97;78.98;93954.13;1781981;78;21046;-85
2021/10/07 05:40:00;;;;;;;17.95;8.18;;;;;;;5.08;78.55;93959.80;1788260;78;21706;-85
2021/10/07 05:42:27;;;;;;;20.87;14.00;;;;;;;5.27;77.50;93965.84;1750685;80;21044;-86
2021/10/07 05:44:53;;;;;;;16.12;10.28;;;;;;;5.51;76.04;93956.78;1780043;78;21103;-85
2021/10/07 05:47:20;;;;;;;18.85;13.78;;;;;;;5.85;74.35;93969.52;1788945;78;21565;-86
2021/10/07 05:49:46;;;;;;;12.15;6.22;;;;;;;6.31;72.87;93976.52;1791576;78;21629;-85
2021/10/07 05:52:12;;;;;;;7.25;4.95;;;;;;;6.78;71.43;93969.36;1809593;77;21529;-86
2021/10/07 05:54:41;;;;;;;6.80;5.12;;;;;;;7.34;70.65;93975.58;1780052;79;21414;-86
2021/10/07 05:57:09;;;;;;;4.87;4.40;;;;;;;7.74;68.28;93965.58;1784441;77;21098;-87
2021/10/07 05:59:43;;;;;;;8.08;5.20;;;;;;;7.96;67.74;93970.75;1791377;77;21075;-84
2021/10/07 06:02:12;;;;;;;5.60;5.05;;;;;;;8.22;67.73;93972.67;1794535;78;21123;-85
2021/10/07 06:04:40;;;;;;;6.67;5.83;;;;;;;8.59;66.57;93969.31;1793314;77;21100;-85
2021/10/07 06:07:06;;;;;;;8.83;7.92;;;;;;;8.64;65.64;93966.84;1772837;79;21032;-85
2021/10/07 06:09:34;;;;;;;10.03;9.00;;;;;;;8.40;64.30;93967.53;1779252;78;21075;-85
2021/10/07 06:12:01;;;;;;;12.23;8.48;;;;;;;8.20;65.34;93966.85;1813389;78;21112;-87
2021/10/07 06:14:28;;;;;;;13.22;8.93;;;;;;;8.08;65.36;93968.98;1783328;78;21070;-87
2021/10/07 06:16:54;;;;;;;14.45;9.58;;;;;;;7.83;66.47;93969.41;1770170;79;21338;-86
2021/10/07 06:19:38;;;;;;;16.62;8.70;;;;;;;7.65;66.82;93969.12;1814853;77;21051;-86
2021/10/07 06:22:05;;;;;;;7.75;6.67;;;;;;;7.51;68.62;93964.26;1800724;79;21073;-85
2021/10/07 06:24:31;;;;;;;6.97;5.53;;;;;;;7.64;68.24;93970.28;1831632;77;22656;-87
2021/10/07 06:26:59;;;;;;;11.08;8.28;;;;;;;7.87;69.09;93966.76;1763573;80;21066;-88
2021/10/07 06:29:25;;;;;;;9.43;6.85;;;;;;;8.07;67.71;93967.42;1800612;78;21065;-86
2021/10/07 06:31:51;;;;;;;9.68;6.92;;;;;;;7.98;67.73;93970.41;1831792;77;21057;-86
2021/10/07 06:34:18;;;;;;;9.15;6.42;;;;;;;7.84;68.12;93964.77;1840291;76;21629;-86
2021/10/07 06:36:44;;;;;;;8.55;6.05;;;;;;;7.74;68.98;93959.39;1832163;76;21528;-85
2021/10/07 06:39:11;;;;;;;5.83;5.22;;;;;;;7.71;68.83;93958.22;1842544;77;21048;-85
2021/10/07 06:41:38;;;;;;;8.60;5.55;;;;;;;7.64;68.97;93957.33;1833977;75;21627;-86
2021/10/07 06:44:06;;;;;;;7.20;5.20;;;;;;;7.54;69.13;93965.47;1784396;77;21045;-85
2021/10/07 06:46:32;;;;;;;10.93;5.90;;;;;;;7.47;70.21;93951.24;1780864;78;21575;-85
2021/10/07 06:48:59;;;;;;;7.40;5.00;;;;;;;7.58;69.99;93954.13;1821617;77;21100;-88
2021/10/07 06:51:27;;;;;;;9.13;6.50;;;;;;;7.61;69.77;93949.34;1729050;80;21003;-85
2021/10/07 06:53:55;;;;;;;6.83;4.80;;;;;;;7.59;70.80;93955.68;1781368;77;21812;-85
2021/10/07 06:56:22;;;;;;;8.25;5.25;;;;;;;7.56;70.61;93951.02;1795255;78;21031;-85
2021/10/07 06:58:53;;;;;;;11.55;5.60;;;;;;;7.60;70.76;93948.34;1794617;76;21544;-86
2021/10/07 07:01:23;;;;;;;9.35;5.72;;;;;;;7.65;70.61;93953.47;1819263;76;21101;-86
2021/10/07 07:03:52;;;;;;;7.67;5.05;;;;;;;7.73;70.40;93955.13;1830602;77;21068;-84
2021/10/07 07:06:20;;;;;;;7.33;4.58;;;;;;;7.87;70.00;93945.09;1832966;77;21029;-86
2021/10/07 07:08:46;;;;;;;4.33;3.65;;;;;;;7.89;69.79;93951.69;1829039;77;21041;-85
2021/10/07 07:11:13;;;;;;;17.95;10.75;;;;;;;7.96;69.69;93945.03;1829495;76;21066;-85
2021/10/07 07:13:40;;;;;;;15.75;8.43;;;;;;;8.07;70.03;93946.53;1790636;78;21117;-85
2021/10/07 07:16:08;;;;;;;11.15;5.58;;;;;;;8.14;70.47;93954.77;1787038;77;21070;-85
2021/10/07 07:18:35;;;;;;;5.37;4.80;;;;;;;8.19;70.02;93955.78;1778881;76;21080;-85
2021/10/07 07:21:01;;;;;;;7.70;4.10;;;;;;;8.27;70.04;93959.38;1804824;76;21657;-87
2021/10/07 07:23:28;;;;;;;8.00;5.22;;;;;;;8.34;69.19;93949.20;1829816;76;21005;-85
2021/10/07 07:25:57;;;;;;;6.87;4.50;;;;;;;8.40;68.81;93953.98;1800899;77;21868;-87
2021/10/07 07:28:23;;;;;;;6.58;4.35;;;;;;;8.43;67.87;93952.47;1769931;78;21082;-85
2021/10/07 07:30:50;;;;;;;10.78;4.65;;;;;;;8.45;68.54;93956.93;1835064;76;21062;-84
2021/10/07 07:33:24;;;;;;;4.90;3.92;;;;;;;8.66;68.80;93960.49;1825503;76;21049;-85
2021/10/07 07:35:48;;;;;;;6.95;3.72;;;;;;;8.83;67.83;93967.26;1832769;76;20977;-87
2021/10/07 07:38:15;;;;;;;9.10;3.67;;;;;;;9.06;64.90;93967.89;1835146;76;21085;-86
2021/10/07 07:40:41;;;;;;;5.53;2.95;;;;;;;9.36;63.89;93967.03;1795347;78;21346;-88
2021/10/07 07:43:08;;;;;;;4.83;3.35;;;;;;;9.82;62.10;93974.23;1834262;76;21119;-88
2021/10/07 07:45:35;;;;;;;4.50;2.60;;;;;;;10.31;59.34;93973.04;1801358;76;21118;-86
2021/10/07 07:48:01;;;;;;;3.17;2.58;;;;;;;10.49;56.09;93975.06;1796903;77;21035;-86
2021/10/07 07:50:29;;;;;;;4.62;2.52;;;;;;;10.48;55.88;93972.15;1788958;78;21101;-88
2021/10/07 07:52:58;;;;;;;6.70;3.22;;;;;;;10.47;58.12;93972.73;1784365;78;21601;-86
2021/10/07 07:55:24;;;;;;;7.65;3.67;;;;;;;10.54;57.06;93976.84;1763007;78;21130;-86
2021/10/07 07:57:50;;;;;;;5.80;2.50;;;;;;;10.62;57.10;93981.16;1840892;75;21021;-87
2021/10/07 08:00:17;;;;;;;7.95;2.60;;;;;;;10.66;54.20;93975.73;1804548;77;21049;-88
2021/10/07 08:02:46;;;;;;;4.78;2.33;;;;;;;10.69;55.32;93977.70;1821296;76;21124;-88
2021/10/07 08:05:14;;;;;;;11.65;3.25;;;;;;;10.74;54.19;93981.40;1822206;76;21057;-88
2021/10/07 08:07:44;;;;;;;6.12;2.20;;;;;;;10.76;53.42;93976.95;1823405;77;21038;-88
2021/10/07 08:10:12;;;;;;;2.67;1.70;;;;;;;10.62;53.92;93980.37;1785576;78;21109;-86
2021/10/07 08:12:38;;;;;;;9.50;2.22;;;;;;;10.50;53.69;93984.80;1781755;78;20998;-89
2021/10/07 08:15:07;;;;;;;5.15;1.92;;;;;;;10.37;53.61;93985.67;1777753;79;21208;-86
2021/10/07 08:17:35;;;;;;;5.45;1.85;;;;;;;10.16;54.51;93980.88;1821455;77;21022;-86
2021/10/07 08:20:07;;;;;;;5.58;1.60;;;;;;;10.09;54.44;93986.26;1818685;76;21017;-90
2021/10/07 08:22:35;;;;;;;17.25;2.95;;;;;;;10.09;56.15;93988.98;1842899;76;21460;-86
2021/10/07 08:25:01;;;;;;;5.45;2.15;;;;;;;10.18;55.25;93994.27;1818392;76;21401;-86
2021/10/07 08:27:28;;;;;;;10.60;2.72;;;;;;;10.25;55.17;93989.49;1813969;77;21561;-87
2021/10/07 08:29:56;;;;;;;7.10;2.30;;;;;;;10.27;54.83;94004.86;1796399;77;21129;-87
2021/10/07 08:32:23;;;;;;;8.05;3.33;;;;;;;10.33;54.96;93997.89;1839882;77;21694;-89
2021/10/07 08:34:50;;;;;;;6.28;2.12;;;;;;;10.40;54.72;94012.88;1846845;77;21609;-87
2021/10/07 08:37:16;;;;;;;4.08;1.60;;;;;;;10.39;54.47;94001.81;1815836;77;21061;-87
2021/10/07 08:39:43;;;;;;;4.70;2.20;;;;;;;10.34;54.09;94000.83;1819500;77;21656;-90
2021/10/07 08:42:11;;;;;;;3.52;1.98;;;;;;;10.30;54.92;94002.72;1815693;76;21088;-87
2021/10/07 08:44:39;;;;;;;6.83;2.10;;;;;;;10.33;54.81;94002.55;1818304;76;21033;-86
2021/10/07 08:47:06;;;;;;;5.67;1.90;;;;;;;10.34;54.63;94002.73;1828487;76;20990;-87
2021/10/07 08:49:38;;;;;;;5.05;1.92;;;;;;;10.33;54.25;94004.69;1852006;75;21038;-86
2021/10/07 08:52:01;;;;;;;6.55;2.25;;;;;;;10.31;55.65;94003.52;1825609;75;21088;-86
2021/10/07 08:54:31;;;;;;;4.92;1.80;;;;;;;10.33;54.80;94003.32;1833773;76;21108;-88
2021/10/07 08:56:56;;;;;;;23.35;4.12;;;;;;;10.32;55.47;94002.35;1826739;76;21040;-87
2021/10/07 08:59:23;;;;;;;6.42;1.65;;;;;;;10.38;55.24;94004.34;1729199;80;21592;-86
2021/10/07 09:01:51;;;;;;;3.20;1.77;;;;;;;10.43;54.58;93995.81;1762295;80;21596;-86
2021/10/07 09:04:35;;;;;;;7.83;2.00;;;;;;;10.48;54.81;93994.67;1780231;78;21105;-87
2021/10/07 09:07:09;;;;;;;4.78;1.85;;;;;;;10.51;54.74;94001.30;1829548;77;21001;-85
2021/10/07 09:09:40;;;;;;;5.37;1.65;;;;;;;10.53;54.45;94003.05;1849102;77;21018;-86
2021/10/07 09:12:12;;;;;;;6.60;2.33;;;;;;;10.52;54.19;94006.93;1831406;76;21508;-90
2021/10/07 09:14:45;;;;;;;8.80;2.20;;;;;;;10.54;53.41;94001.32;1839294;76;21053;-87
2021/10/07 09:17:15;;;;;;;4.65;2.20;;;;;;;10.53;53.61;94001.69;1847002;76;21302;-88
2021/10/07 09:19:44;;;;;;;6.20;1.87;;;;;;;10.55;53.46;94004.23;1756762;81;21097;-89
2021/10/07 09:22:21;;;;;;;8.48;2.00;;;;;;;10.58;54.64;94008.14;1756505;80;20958;-85
2021/10/07 09:24:58;;;;;;;12.13;2.50;;;;;;;10.69;53.86;94005.67;1834992;77;20932;-86
2021/10/07 09:27:28;;;;;;;9.30;2.62;;;;;;;10.75;53.74;94010.73;1823978;77;20904;-87
2021/10/07 09:30:06;;;;;;;7.17;2.12;;;;;;;10.73;53.43;94011.13;1778624;78;21774;-86
2021/10/07 09:32:40;;;;;;;6.85;2.42;;;;;;;10.68;53.47;94007.39;1751937;76;21175;-86
2021/10/07 09:35:10;;;;;;;10.75;3.05;;;;;;;10.62;53.74;94006.99;1807144;79;21081;-88
2021/10/07 09:37:39;;;;;;;7.03;2.12;;;;;;;10.59;53.84;94006.97;1797331;76;21144;-90
2021/10/07 09:40:23;;;;;;;6.00;2.33;;;;;;;10.55;54.15;94008.89;1783681;78;21106;-87
2021/10/07 09:43:02;;;;;;;6.03;2.20;;;;;;;10.54;54.03;94016.86;1823530;76;21133;-89
2021/10/07 09:45:32;;;;;;;7.53;2.47;;;;;;;10.49;53.97;94022.64;1831232;75;21092;-89
2021/10/07 09:48:05;;;;;;;6.62;2.10;;;;;;;10.44;54.72;94015.63;1793408;77;21065;-89
2021/10/07 09:50:35;;;;;;;5.95;2.05;;;;;;;10.46;54.04;94009.24;1792784;77;21666;-86
2021/10/07 09:53:05;;;;;;;14.15;2.15;;;;;;;10.49;54.96;94011.18;1798654;78;21606;-86
2021/10/07 09:55:39;;;;;;;6.53;2.37;;;;;;;10.54;53.87;94012.78;1800700;77;21274;-87
2021/10/07 09:58:17;;;;;;;9.05;2.30;;;;;;;10.54;53.66;94008.70;1799205;77;21500;-86
2021/10/07 10:00:47;;;;;;;6.30;2.35;;;;;;;10.52;53.74;94010.42;1806186;78;21300;-87
2021/10/07 10:03:18;;;;;;;7.40;2.30;;;;;;;10.54;54.16;94008.70;1793241;79;21037;-85
2021/10/07 10:05:44;;;;;;;13.72;3.30;;;;;;;10.52;54.13;94006.34;1779353;79;21039;-86
2021/10/07 10:08:13;;;;;;;12.30;2.72;;;;;;;10.50;54.44;94010.05;1779620;79;21841;-85
2021/10/07 10:10:42;;;;;;;12.28;3.77;;;;;;;10.47;54.99;94006.72;1832783;76;21041;-88
2021/10/07 10:13:09;;;;;;;5.00;2.65;;;;;;;10.45;54.94;94000.31;1739907;78;21764;-85
2021/10/07 10:15:37;;;;;;;10.98;2.70;;;;;;;10.48;55.43;94010.21;1795923;77;21061;-89
2021/10/07 10:18:08;;;;;;;9.63;2.70;;;;;;;10.50;54.29;94010.63;1804795;76;21043;-86
2021/10/07 10:20:38;;;;;;;6.75;2.45;;;;;;;10.44;54.92;94015.63;1794193;78;21248;-90
2021/10/07 10:23:14;;;;;;;8.95;2.65;;;;;;;10.37;54.66;94007.42;1826069;76;21850;-87
2021/10/07 10:26:01;;;;;;;8.15;2.92;;;;;;;10.39;55.48;94011.92;1835786;75;22101;-89
2021/10/07 10:28:47;;;;;;;9.83;2.83;;;;;;;10.45;55.32;94016.63;1762867;77;21062;-87
2021/10/07 10:31:29;;;;;;;12.45;2.90;;;;;;;10.50;55.19;94015.48;1800374;77;21048;-88
2021/10/07 10:34:09;;;;;;;11.55;3.77;;;;;;;10.51;54.69;94017.03;1789670;78;21083;-86
2021/10/07 10:36:46;;;;;;;9.90;3.40;;;;;;;10.51;55.59;94025.77;1817090;77;21031;-88
2021/10/07 10:39:25;;;;;;;13.93;3.67;;;;;;;10.54;54.80;94028.52;1816288;77;21092;-88
2021/10/07 10:42:07;;;;;;;6.62;3.30;;;;;;;10.51;55.19;94029.84;1814111;77;21058;-88
2021/10/07 10:44:41;;;;;;;9.55;2.80;;;;;;;10.41;54.96;94032.11;1812072;77;20962;-87
2021/10/07 10:47:13;;;;;;;11.73;4.22;;;;;;;10.35;55.14;94032.86;1739804;79;21153;-88
2021/10/07 10:50:11;;;;;;;11.48;2.90;;;;;;;10.28;55.41;94036.30;1813076;77;21039;-87
2021/10/07 10:52:42;;;;;;;16.23;3.58;;;;;;;10.19;55.43;94045.32;1840902;77;21112;-86
2021/10/07 10:55:13;;;;;;;18.62;3.55;;;;;;;10.10;55.50;94045.65;1801845;78;21078;-89
2021/10/07 10:57:50;;;;;;;15.50;3.30;;;;;;;10.03;56.04;94052.97;1787385;78;21078;-89
2021/10/07 11:00:36;;;;;;;20.20;5.20;;;;;;;10.01;56.85;94051.99;1825215;76;21987;-89
2021/10/07 11:03:17;;;;;;;18.45;4.05;;;;;;;9.99;56.25;94048.86;1844919;75;21754;-88
2021/10/07 11:05:48;;;;;;;13.25;4.35;;;;;;;9.90;56.90;94060.05;1858405;75;21064;-88
2021/10/07 11:08:20;;;;;;;18.40;3.72;;;;;;;9.86;57.19;94057.88;1858476;75;21755;-87
2021/10/07 11:10:49;;;;;;;14.07;3.25;;;;;;;9.80;56.91;94050.44;1828493;75;21753;-87
2021/10/07 11:13:24;;;;;;;11.38;3.40;;;;;;;9.70;57.53;94056.77;1763442;79;21567;-87
2021/10/07 11:15:56;;;;;;;13.40;3.85;;;;;;;9.60;57.73;94049.88;1769302;78;21130;-86
2021/10/07 11:18:22;;;;;;;16.55;3.98;;;;;;;9.49;58.53;94055.97;1786481;78;21091;-88
2021/10/07 11:23:20;;;;;;;17.75;4.33;;;;;;;9.48;58.82;94054.42;1788106;78;21105;-87
2021/10/07 11:25:49;;;;;;;14.38;4.30;;;;;;;9.49;58.84;94052.48;1774311;78;22118;-86
2021/10/07 11:28:19;;;;;;;23.15;4.80;;;;;;;9.54;59.13;94051.36;1773997;78;21085;-86
2021/10/07 11:31:47;;;;;;;14.25;3.80;;;;;;;9.55;59.03;94057.76;1786047;76;21618;-88
2021/10/07 11:34:14;;;;;;;21.73;4.45;;;;;;;9.58;59.47;94054.88;1811897;76;20984;-87
2021/10/07 11:36:41;;;;;;;16.20;3.95;;;;;;;9.63;58.67;94054.56;1811207;77;21690;-88
2021/10/07 11:39:07;;;;;;;27.93;5.08;;;;;;;9.64;58.69;94061.55;1814085;76;21217;-87
2021/10/07 11:41:35;;;;;;;17.30;3.72;;;;;;;9.65;58.67;94055.73;1799108;77;20961;-88
2021/10/07 11:44:03;;;;;;;16.20;4.12;;;;;;;9.69;58.87;94055.19;1788505;78;21057;-86
2021/10/07 11:46:30;;;;;;;12.47;3.83;;;;;;;9.73;59.02;94053.28;1785362;77;21088;-91
2021/10/07 11:48:57;;;;;;;18.73;3.45;;;;;;;9.78;58.59;94048.11;1808100;77;21032;-86
2021/10/07 11:51:28;;;;;;;20.00;4.00;;;;;;;9.85;57.97;94050.86;1780188;78;21096;-86